sensor_id;sensor_type;location;lat;lon;timestamp;P1;durP1;ratioP1;P2;durP2;ratioP2
30970;SDS011;17651;52.262;10.498;2023-01-05T00:02:00;10.98;;;2.78;;
30970;SDS011;17651;52.262;10.498;2023-01-05T00:04:11;6.63;;;2.13;;
30970;SDS011;17651;52.262;10.498;2023-01-05T00:06:23;12.20;;;3.10;;
30970;SDS011;17651;52.262;10.498;2023-01-05T00:08:34;13.57;;;2.10;;
30970;SDS011;17651;52.262;10.498;2023-01-05T00:10:45;7.93;;;2.53;;
30970;SDS011;17651;52.262;10.498;2023-01-05T00:15:44;7.07;;;2.13;;
30970;SDS011;17651;52.262;10.498;2023-01-05T00:20:43;11.00;;;2.60;;
30970;SDS011;17651;52.262;10.498;2023-01-05T00:25:26;8.40;;;2.28;;
30970;SDS011;17651;52.262;10.498;2023-01-05T00:27:38;12.60;;;2.72;;
30970;SDS011;17651;52.262;10.498;2023-01-05T00:29:50;12.35;;;2.50;;
30970;SDS011;17651;52.262;10.498;2023-01-05T00:32:01;8.77;;;3.00;;
30970;SDS011;17651;52.262;10.498;2023-01-05T00:34:12;10.48;;;2.63;;
30970;SDS011;17651;52.262;10.498;2023-01-05T00:36:24;10.35;;;3.33;;
30970;SDS011;17651;52.262;10.498;2023-01-05T00:38:35;12.02;;;3.00;;
30970;SDS011;17651;52.262;10.498;2023-01-05T00:40:48;15.70;;;2.67;;
30970;SDS011;17651;52.262;10.498;2023-01-05T00:42:59;9.45;;;2.22;;
30970;SDS011;17651;52.262;10.498;2023-01-05T00:45:11;8.20;;;2.47;;
30970;SDS011;17651;52.262;10.498;2023-01-05T00:47:22;10.80;;;2.70;;
30970;SDS011;17651;52.262;10.498;2023-01-05T00:49:33;13.63;;;2.83;;
30970;SDS011;17651;52.262;10.498;2023-01-05T00:51:45;10.27;;;2.78;;
30970;SDS011;17651;52.262;10.498;2023-01-05T00:53:56;11.45;;;3.13;;
30970;SDS011;17651;52.262;10.498;2023-01-05T00:56:07;7.85;;;2.85;;
30970;SDS011;17651;52.262;10.498;2023-01-05T00:58:18;16.98;;;4.35;;
30970;SDS011;17651;52.262;10.498;2023-01-05T01:00:29;11.50;;;2.50;;
30970;SDS011;17651;52.262;10.498;2023-01-05T01:02:40;12.18;;;3.00;;
30970;SDS011;17651;52.262;10.498;2023-01-05T01:04:52;10.82;;;2.10;;
30970;SDS011;17651;52.262;10.498;2023-01-05T01:07:03;11.80;;;3.22;;
30970;SDS011;17651;52.262;10.498;2023-01-05T01:09:14;14.85;;;2.78;;
30970;SDS011;17651;52.262;10.498;2023-01-05T01:11:25;13.13;;;2.30;;
30970;SDS011;17651;52.262;10.498;2023-01-05T01:13:36;11.50;;;3.05;;
30970;SDS011;17651;52.262;10.498;2023-01-05T01:15:48;16.10;;;2.80;;
30970;SDS011;17651;52.262;10.498;2023-01-05T01:17:59;16.63;;;2.97;;
30970;SDS011;17651;52.262;10.498;2023-01-05T01:20:10;13.93;;;3.00;;
30970;SDS011;17651;52.262;10.498;2023-01-05T01:22:21;9.35;;;2.53;;
30970;SDS011;17651;52.262;10.498;2023-01-05T01:24:32;9.70;;;3.65;;
30970;SDS011;17651;52.262;10.498;2023-01-05T01:26:43;15.20;;;2.92;;
30970;SDS011;17651;52.262;10.498;2023-01-05T01:28:54;15.15;;;2.67;;
30970;SDS011;17651;52.262;10.498;2023-01-05T01:31:05;20.23;;;5.03;;
30970;SDS011;17651;52.262;10.498;2023-01-05T01:33:17;15.25;;;3.17;;
30970;SDS011;17651;52.262;10.498;2023-01-05T01:35:28;15.55;;;3.40;;
30970;SDS011;17651;52.262;10.498;2023-01-05T01:37:39;13.18;;;4.13;;
30970;SDS011;17651;52.262;10.498;2023-01-05T01:39:50;18.33;;;3.55;;
30970;SDS011;17651;52.262;10.498;2023-01-05T01:42:02;16.20;;;2.83;;
30970;SDS011;17651;52.262;10.498;2023-01-05T01:46:43;18.88;;;3.30;;
30970;SDS011;17651;52.262;10.498;2023-01-05T01:48:58;15.93;;;3.33;;
30970;SDS011;17651;52.262;10.498;2023-01-05T01:51:12;11.27;;;3.10;;
30970;SDS011;17651;52.262;10.498;2023-01-05T01:53:26;16.05;;;3.67;;
30970;SDS011;17651;52.262;10.498;2023-01-05T01:55:38;15.48;;;3.10;;
30970;SDS011;17651;52.262;10.498;2023-01-05T01:57:49;15.32;;;3.40;;
30970;SDS011;17651;52.262;10.498;2023-01-05T02:00:02;19.67;;;3.92;;
30970;SDS011;17651;52.262;10.498;2023-01-05T02:02:15;18.63;;;3.53;;
30970;SDS011;17651;52.262;10.498;2023-01-05T02:04:27;11.75;;;3.72;;
30970;SDS011;17651;52.262;10.498;2023-01-05T02:06:39;12.82;;;4.03;;
30970;SDS011;17651;52.262;10.498;2023-01-05T02:08:50;10.35;;;3.03;;
30970;SDS011;17651;52.262;10.498;2023-01-05T02:26:54;11.63;;;2.30;;
30970;SDS011;17651;52.262;10.498;2023-01-05T02:31:24;11.35;;;3.17;;
30970;SDS011;17651;52.262;10.498;2023-01-05T02:36:10;6.90;;;1.75;;
30970;SDS011;17651;52.262;10.498;2023-01-05T02:40:38;14.05;;;2.70;;
30970;SDS011;17651;52.262;10.498;2023-01-05T02:42:51;10.27;;;3.90;;
30970;SDS011;17651;52.262;10.498;2023-01-05T02:45:04;16.85;;;3.72;;
30970;SDS011;17651;52.262;10.498;2023-01-05T02:49:37;17.70;;;4.78;;
30970;SDS011;17651;52.262;10.498;2023-01-05T02:51:51;15.38;;;3.17;;
30970;SDS011;17651;52.262;10.498;2023-01-05T02:54:17;12.57;;;3.17;;
30970;SDS011;17651;52.262;10.498;2023-01-05T02:56:39;17.35;;;3.22;;
30970;SDS011;17651;52.262;10.498;2023-01-05T02:58:52;14.80;;;3.28;;
30970;SDS011;17651;52.262;10.498;2023-01-05T03:01:13;19.80;;;3.75;;
30970;SDS011;17651;52.262;10.498;2023-01-05T03:03:34;11.90;;;2.88;;
30970;SDS011;17651;52.262;10.498;2023-01-05T03:06:06;14.07;;;3.35;;
30970;SDS011;17651;52.262;10.498;2023-01-05T03:08:18;13.73;;;2.53;;
30970;SDS011;17651;52.262;10.498;2023-01-05T03:10:36;28.90;;;4.25;;
30970;SDS011;17651;52.262;10.498;2023-01-05T03:13:08;7.75;;;2.70;;
30970;SDS011;17651;52.262;10.498;2023-01-05T03:15:39;15.65;;;3.30;;
30970;SDS011;17651;52.262;10.498;2023-01-05T03:17:53;10.63;;;2.95;;
30970;SDS011;17651;52.262;10.498;2023-01-05T03:20:06;16.55;;;3.58;;
30970;SDS011;17651;52.262;10.498;2023-01-05T03:22:23;17.77;;;3.63;;
30970;SDS011;17651;52.262;10.498;2023-01-05T03:24:55;17.60;;;3.58;;
30970;SDS011;17651;52.262;10.498;2023-01-05T03:27:26;24.38;;;3.67;;
30970;SDS011;17651;52.262;10.498;2023-01-05T03:29:57;22.88;;;4.45;;
30970;SDS011;17651;52.262;10.498;2023-01-05T03:34:58;11.38;;;3.22;;
30970;SDS011;17651;52.262;10.498;2023-01-05T03:37:54;17.95;;;3.72;;
30970;SDS011;17651;52.262;10.498;2023-01-05T03:40:04;13.60;;;3.20;;
30970;SDS011;17651;52.262;10.498;2023-01-05T03:42:18;16.90;;;4.05;;
30970;SDS011;17651;52.262;10.498;2023-01-05T03:44:30;18.25;;;3.90;;
30970;SDS011;17651;52.262;10.498;2023-01-05T03:46:44;14.52;;;3.10;;
30970;SDS011;17651;52.262;10.498;2023-01-05T03:48:55;13.15;;;3.08;;
30970;SDS011;17651;52.262;10.498;2023-01-05T03:51:09;16.17;;;3.90;;
30970;SDS011;17651;52.262;10.498;2023-01-05T03:53:22;12.52;;;3.53;;
30970;SDS011;17651;52.262;10.498;2023-01-05T03:55:34;14.88;;;3.50;;
30970;SDS011;17651;52.262;10.498;2023-01-05T03:57:45;19.13;;;4.68;;
30970;SDS011;17651;52.262;10.498;2023-01-05T03:59:57;14.93;;;2.90;;
30970;SDS011;17651;52.262;10.498;2023-01-05T04:02:08;15.68;;;3.85;;
30970;SDS011;17651;52.262;10.498;2023-01-05T04:04:20;20.45;;;3.53;;
30970;SDS011;17651;52.262;10.498;2023-01-05T04:06:31;14.23;;;3.47;;
30970;SDS011;17651;52.262;10.498;2023-01-05T04:08:43;17.20;;;3.85;;
30970;SDS011;17651;52.262;10.498;2023-01-05T04:10:54;16.23;;;3.70;;
30970;SDS011;17651;52.262;10.498;2023-01-05T04:13:06;16.02;;;3.47;;
30970;SDS011;17651;52.262;10.498;2023-01-05T04:15:17;15.52;;;3.53;;
30970;SDS011;17651;52.262;10.498;2023-01-05T04:17:29;10.82;;;3.03;;
30970;SDS011;17651;52.262;10.498;2023-01-05T04:19:41;13.60;;;3.47;;
30970;SDS011;17651;52.262;10.498;2023-01-05T04:21:52;16.23;;;3.13;;
30970;SDS011;17651;52.262;10.498;2023-01-05T04:24:06;14.52;;;2.92;;
30970;SDS011;17651;52.262;10.498;2023-01-05T04:26:20;18.42;;;3.63;;
30970;SDS011;17651;52.262;10.498;2023-01-05T04:28:33;18.08;;;4.28;;
30970;SDS011;17651;52.262;10.498;2023-01-05T04:30:48;17.75;;;3.78;;
30970;SDS011;17651;52.262;10.498;2023-01-05T04:32:59;12.18;;;3.38;;
30970;SDS011;17651;52.262;10.498;2023-01-05T04:35:12;17.20;;;3.85;;
30970;SDS011;17651;52.262;10.498;2023-01-05T04:37:24;13.95;;;3.38;;
30970;SDS011;17651;52.262;10.498;2023-01-05T04:39:36;13.30;;;3.03;;
30970;SDS011;17651;52.262;10.498;2023-01-05T04:41:48;18.48;;;3.55;;
30970;SDS011;17651;52.262;10.498;2023-01-05T04:44:02;12.05;;;3.40;;
30970;SDS011;17651;52.262;10.498;2023-01-05T04:46:13;17.77;;;3.30;;
30970;SDS011;17651;52.262;10.498;2023-01-05T04:48:26;12.88;;;3.55;;
30970;SDS011;17651;52.262;10.498;2023-01-05T04:50:38;17.02;;;3.55;;
30970;SDS011;17651;52.262;10.498;2023-01-05T04:52:49;14.35;;;3.13;;
30970;SDS011;17651;52.262;10.498;2023-01-05T04:55:04;20.08;;;3.30;;
30970;SDS011;17651;52.262;10.498;2023-01-05T04:57:16;15.60;;;3.42;;
30970;SDS011;17651;52.262;10.498;2023-01-05T04:59:28;17.00;;;3.67;;
30970;SDS011;17651;52.262;10.498;2023-01-05T05:01:44;20.88;;;3.50;;
30970;SDS011;17651;52.262;10.498;2023-01-05T05:03:59;15.63;;;3.40;;
30970;SDS011;17651;52.262;10.498;2023-01-05T05:06:10;19.40;;;3.08;;
30970;SDS011;17651;52.262;10.498;2023-01-05T05:08:21;14.32;;;3.47;;
30970;SDS011;17651;52.262;10.498;2023-01-05T05:10:32;14.10;;;3.53;;
30970;SDS011;17651;52.262;10.498;2023-01-05T05:12:43;18.52;;;3.40;;
30970;SDS011;17651;52.262;10.498;2023-01-05T05:14:54;13.93;;;4.03;;
30970;SDS011;17651;52.262;10.498;2023-01-05T05:17:07;12.10;;;3.22;;
30970;SDS011;17651;52.262;10.498;2023-01-05T05:19:18;14.30;;;2.90;;
30970;SDS011;17651;52.262;10.498;2023-01-05T05:21:29;11.18;;;3.35;;
30970;SDS011;17651;52.262;10.498;2023-01-05T05:23:41;17.90;;;3.10;;
30970;SDS011;17651;52.262;10.498;2023-01-05T05:25:52;13.38;;;3.50;;
30970;SDS011;17651;52.262;10.498;2023-01-05T05:28:04;9.50;;;2.72;;
30970;SDS011;17651;52.262;10.498;2023-01-05T05:30:16;12.70;;;3.50;;
30970;SDS011;17651;52.262;10.498;2023-01-05T05:32:27;14.23;;;3.50;;
30970;SDS011;17651;52.262;10.498;2023-01-05T05:34:38;8.95;;;2.45;;
30970;SDS011;17651;52.262;10.498;2023-01-05T05:36:49;20.67;;;3.50;;
30970;SDS011;17651;52.262;10.498;2023-01-05T05:39:00;12.82;;;2.95;;
30970;SDS011;17651;52.262;10.498;2023-01-05T05:41:11;20.00;;;3.00;;
30970;SDS011;17651;52.262;10.498;2023-01-05T05:43:22;10.70;;;3.95;;
30970;SDS011;17651;52.262;10.498;2023-01-05T05:45:33;17.73;;;3.50;;
30970;SDS011;17651;52.262;10.498;2023-01-05T05:47:44;7.65;;;2.88;;
30970;SDS011;17651;52.262;10.498;2023-01-05T05:49:55;11.02;;;3.20;;
30970;SDS011;17651;52.262;10.498;2023-01-05T05:52:06;16.50;;;4.28;;
30970;SDS011;17651;52.262;10.498;2023-01-05T05:54:17;12.25;;;3.20;;
30970;SDS011;17651;52.262;10.498;2023-01-05T05:56:29;9.93;;;2.90;;
30970;SDS011;17651;52.262;10.498;2023-01-05T05:58:40;15.18;;;3.40;;
30970;SDS011;17651;52.262;10.498;2023-01-05T06:00:51;15.13;;;4.20;;
30970;SDS011;17651;52.262;10.498;2023-01-05T06:03:06;12.05;;;3.80;;
30970;SDS011;17651;52.262;10.498;2023-01-05T06:05:17;14.02;;;3.75;;
30970;SDS011;17651;52.262;10.498;2023-01-05T06:07:28;16.27;;;4.28;;
30970;SDS011;17651;52.262;10.498;2023-01-05T06:09:39;14.38;;;3.47;;
30970;SDS011;17651;52.262;10.498;2023-01-05T06:11:50;13.75;;;3.67;;
30970;SDS011;17651;52.262;10.498;2023-01-05T06:14:02;16.33;;;3.67;;
30970;SDS011;17651;52.262;10.498;2023-01-05T06:16:13;12.43;;;3.97;;
30970;SDS011;17651;52.262;10.498;2023-01-05T06:18:24;12.23;;;2.95;;
30970;SDS011;17651;52.262;10.498;2023-01-05T06:20:37;11.50;;;3.65;;
30970;SDS011;17651;52.262;10.498;2023-01-05T06:22:48;20.58;;;3.92;;
30970;SDS011;17651;52.262;10.498;2023-01-05T06:24:59;21.88;;;3.80;;
30970;SDS011;17651;52.262;10.498;2023-01-05T06:27:10;14.18;;;3.30;;
30970;SDS011;17651;52.262;10.498;2023-01-05T06:29:21;9.80;;;3.58;;
30970;SDS011;17651;52.262;10.498;2023-01-05T06:31:32;14.15;;;3.58;;
30970;SDS011;17651;52.262;10.498;2023-01-05T06:33:43;14.57;;;3.58;;
30970;SDS011;17651;52.262;10.498;2023-01-05T06:35:55;12.65;;;3.00;;
30970;SDS011;17651;52.262;10.498;2023-01-05T06:38:07;11.88;;;3.88;;
30970;SDS011;17651;52.262;10.498;2023-01-05T06:40:20;8.48;;;2.97;;
30970;SDS011;17651;52.262;10.498;2023-01-05T06:42:31;15.77;;;3.78;;
30970;SDS011;17651;52.262;10.498;2023-01-05T06:44:42;10.60;;;3.58;;
30970;SDS011;17651;52.262;10.498;2023-01-05T06:46:53;11.85;;;3.63;;
30970;SDS011;17651;52.262;10.498;2023-01-05T06:49:04;11.70;;;3.50;;
30970;SDS011;17651;52.262;10.498;2023-01-05T06:51:15;13.32;;;3.30;;
30970;SDS011;17651;52.262;10.498;2023-01-05T06:53:26;6.97;;;2.25;;
30970;SDS011;17651;52.262;10.498;2023-01-05T06:55:37;8.65;;;2.63;;
30970;SDS011;17651;52.262;10.498;2023-01-05T06:57:48;11.98;;;3.25;;
30970;SDS011;17651;52.262;10.498;2023-01-05T06:59:59;13.77;;;3.50;;
30970;SDS011;17651;52.262;10.498;2023-01-05T07:02:14;12.23;;;3.17;;
30970;SDS011;17651;52.262;10.498;2023-01-05T07:04:26;9.77;;;2.80;;
30970;SDS011;17651;52.262;10.498;2023-01-05T07:06:37;12.48;;;2.83;;
30970;SDS011;17651;52.262;10.498;2023-01-05T07:08:48;15.98;;;3.90;;
30970;SDS011;17651;52.262;10.498;2023-01-05T07:10:59;13.80;;;4.07;;
30970;SDS011;17651;52.262;10.498;2023-01-05T07:13:10;9.80;;;3.42;;
30970;SDS011;17651;52.262;10.498;2023-01-05T07:15:21;12.18;;;4.13;;
30970;SDS011;17651;52.262;10.498;2023-01-05T07:17:32;9.35;;;3.80;;
30970;SDS011;17651;52.262;10.498;2023-01-05T07:19:44;10.48;;;4.05;;
30970;SDS011;17651;52.262;10.498;2023-01-05T07:21:56;14.52;;;3.90;;
30970;SDS011;17651;52.262;10.498;2023-01-05T07:24:07;17.23;;;4.32;;
30970;SDS011;17651;52.262;10.498;2023-01-05T07:26:18;13.35;;;3.88;;
30970;SDS011;17651;52.262;10.498;2023-01-05T07:28:29;13.55;;;3.28;;
30970;SDS011;17651;52.262;10.498;2023-01-05T07:30:40;13.57;;;4.07;;
30970;SDS011;17651;52.262;10.498;2023-01-05T07:32:52;20.45;;;3.08;;
30970;SDS011;17651;52.262;10.498;2023-01-05T07:35:03;12.75;;;3.85;;
30970;SDS011;17651;52.262;10.498;2023-01-05T07:37:14;18.40;;;4.72;;
30970;SDS011;17651;52.262;10.498;2023-01-05T07:39:25;18.15;;;5.63;;
30970;SDS011;17651;52.262;10.498;2023-01-05T07:41:37;11.55;;;3.53;;
30970;SDS011;17651;52.262;10.498;2023-01-05T07:43:49;13.00;;;3.42;;
30970;SDS011;17651;52.262;10.498;2023-01-05T07:46:00;17.13;;;4.20;;
30970;SDS011;17651;52.262;10.498;2023-01-05T07:48:12;10.68;;;3.25;;
30970;SDS011;17651;52.262;10.498;2023-01-05T07:50:23;12.80;;;3.35;;
30970;SDS011;17651;52.262;10.498;2023-01-05T07:52:34;12.38;;;3.25;;
30970;SDS011;17651;52.262;10.498;2023-01-05T07:54:45;11.32;;;3.22;;
30970;SDS011;17651;52.262;10.498;2023-01-05T07:56:56;11.38;;;3.20;;
30970;SDS011;17651;52.262;10.498;2023-01-05T07:59:07;12.00;;;3.50;;
30970;SDS011;17651;52.262;10.498;2023-01-05T08:01:18;13.02;;;2.90;;
30970;SDS011;17651;52.262;10.498;2023-01-05T08:03:29;12.80;;;3.28;;
30970;SDS011;17651;52.262;10.498;2023-01-05T08:05:41;16.38;;;3.38;;
30970;SDS011;17651;52.262;10.498;2023-01-05T08:07:52;12.98;;;2.75;;
30970;SDS011;17651;52.262;10.498;2023-01-05T08:10:03;12.77;;;3.10;;
30970;SDS011;17651;52.262;10.498;2023-01-05T08:12:33;11.35;;;2.72;;
30970;SDS011;17651;52.262;10.498;2023-01-05T08:15:04;12.90;;;4.53;;
30970;SDS011;17651;52.262;10.498;2023-01-05T08:17:15;14.70;;;3.28;;
30970;SDS011;17651;52.262;10.498;2023-01-05T08:19:26;10.38;;;3.10;;
30970;SDS011;17651;52.262;10.498;2023-01-05T08:21:37;12.30;;;3.50;;
30970;SDS011;17651;52.262;10.498;2023-01-05T08:23:48;13.30;;;4.18;;
30970;SDS011;17651;52.262;10.498;2023-01-05T08:26:02;11.60;;;3.70;;
30970;SDS011;17651;52.262;10.498;2023-01-05T08:28:13;13.73;;;3.28;;
30970;SDS011;17651;52.262;10.498;2023-01-05T08:30:24;15.18;;;3.28;;
30970;SDS011;17651;52.262;10.498;2023-01-05T08:32:35;14.13;;;3.35;;
30970;SDS011;17651;52.262;10.498;2023-01-05T08:34:46;13.50;;;3.85;;
30970;SDS011;17651;52.262;10.498;2023-01-05T08:36:57;11.73;;;3.25;;
30970;SDS011;17651;52.262;10.498;2023-01-05T08:39:09;10.02;;;3.67;;
30970;SDS011;17651;52.262;10.498;2023-01-05T08:41:22;18.02;;;3.65;;
30970;SDS011;17651;52.262;10.498;2023-01-05T08:43:33;15.60;;;3.42;;
30970;SDS011;17651;52.262;10.498;2023-01-05T08:45:47;12.00;;;3.15;;
30970;SDS011;17651;52.262;10.498;2023-01-05T08:48:00;11.57;;;3.20;;
30970;SDS011;17651;52.262;10.498;2023-01-05T08:50:11;10.43;;;2.85;;
30970;SDS011;17651;52.262;10.498;2023-01-05T08:52:22;11.02;;;2.92;;
30970;SDS011;17651;52.262;10.498;2023-01-05T08:54:33;9.45;;;3.35;;
30970;SDS011;17651;52.262;10.498;2023-01-05T08:56:45;13.38;;;3.92;;
30970;SDS011;17651;52.262;10.498;2023-01-05T08:58:59;10.07;;;3.63;;
30970;SDS011;17651;52.262;10.498;2023-01-05T09:01:11;14.10;;;3.25;;
30970;SDS011;17651;52.262;10.498;2023-01-05T09:03:22;14.80;;;3.78;;
30970;SDS011;17651;52.262;10.498;2023-01-05T09:05:34;10.60;;;3.13;;
30970;SDS011;17651;52.262;10.498;2023-01-05T09:07:45;13.25;;;4.05;;
30970;SDS011;17651;52.262;10.498;2023-01-05T09:09:56;16.92;;;4.70;;
30970;SDS011;17651;52.262;10.498;2023-01-05T09:12:07;25.38;;;5.05;;
30970;SDS011;17651;52.262;10.498;2023-01-05T09:14:18;16.80;;;3.80;;
30970;SDS011;17651;52.262;10.498;2023-01-05T09:16:30;16.67;;;3.35;;
30970;SDS011;17651;52.262;10.498;2023-01-05T09:18:41;9.85;;;3.20;;
30970;SDS011;17651;52.262;10.498;2023-01-05T09:20:55;13.02;;;3.65;;
30970;SDS011;17651;52.262;10.498;2023-01-05T09:23:07;6.45;;;3.17;;
30970;SDS011;17651;52.262;10.498;2023-01-05T09:25:18;12.35;;;3.35;;
30970;SDS011;17651;52.262;10.498;2023-01-05T09:27:29;15.90;;;3.75;;
30970;SDS011;17651;52.262;10.498;2023-01-05T09:29:41;11.63;;;3.60;;
30970;SDS011;17651;52.262;10.498;2023-01-05T09:31:52;12.10;;;3.80;;
30970;SDS011;17651;52.262;10.498;2023-01-05T09:34:03;14.13;;;3.15;;
30970;SDS011;17651;52.262;10.498;2023-01-05T09:36:14;15.65;;;3.60;;
30970;SDS011;17651;52.262;10.498;2023-01-05T09:38:26;7.28;;;2.42;;
30970;SDS011;17651;52.262;10.498;2023-01-05T09:40:40;12.60;;;3.05;;
30970;SDS011;17651;52.262;10.498;2023-01-05T09:42:52;9.77;;;3.10;;
30970;SDS011;17651;52.262;10.498;2023-01-05T09:45:04;13.13;;;3.10;;
30970;SDS011;17651;52.262;10.498;2023-01-05T09:47:17;8.50;;;2.53;;
30970;SDS011;17651;52.262;10.498;2023-01-05T09:49:29;14.27;;;3.50;;
30970;SDS011;17651;52.262;10.498;2023-01-05T09:51:41;14.35;;;2.90;;
30970;SDS011;17651;52.262;10.498;2023-01-05T09:53:52;6.63;;;3.25;;
30970;SDS011;17651;52.262;10.498;2023-01-05T09:56:04;12.48;;;3.58;;
30970;SDS011;17651;52.262;10.498;2023-01-05T09:58:16;15.25;;;3.47;;
30970;SDS011;17651;52.262;10.498;2023-01-05T10:00:28;14.35;;;3.40;;
30970;SDS011;17651;52.262;10.498;2023-01-05T10:02:46;12.85;;;3.08;;
30970;SDS011;17651;52.262;10.498;2023-01-05T10:05:00;9.40;;;3.33;;
30970;SDS011;17651;52.262;10.498;2023-01-05T10:09:42;16.92;;;3.55;;
30970;SDS011;17651;52.262;10.498;2023-01-05T10:16:54;15.13;;;4.18;;
30970;SDS011;17651;52.262;10.498;2023-01-05T10:19:09;18.10;;;4.40;;
30970;SDS011;17651;52.262;10.498;2023-01-05T10:23:59;19.60;;;4.65;;
30970;SDS011;17651;52.262;10.498;2023-01-05T10:26:14;16.92;;;4.43;;
30970;SDS011;17651;52.262;10.498;2023-01-05T10:32:59;6.13;;;2.10;;
30970;SDS011;17651;52.262;10.498;2023-01-05T10:40:41;1.85;;;0.98;;
30970;SDS011;17651;52.262;10.498;2023-01-05T10:45:16;2.40;;;0.60;;
30970;SDS011;17651;52.262;10.498;2023-01-05T10:47:29;0.95;;;0.80;;
30970;SDS011;17651;52.262;10.498;2023-01-05T10:49:41;3.05;;;0.73;;
30970;SDS011;17651;52.262;10.498;2023-01-05T10:51:55;2.47;;;0.65;;
30970;SDS011;17651;52.262;10.498;2023-01-05T10:54:09;5.78;;;0.88;;
30970;SDS011;17651;52.262;10.498;2023-01-05T10:56:24;4.60;;;0.80;;
30970;SDS011;17651;52.262;10.498;2023-01-05T10:58:39;1.27;;;1.08;;
30970;SDS011;17651;52.262;10.498;2023-01-05T11:00:53;10.13;;;2.65;;
30970;SDS011;17651;52.262;10.498;2023-01-05T11:03:04;5.68;;;1.23;;
30970;SDS011;17651;52.262;10.498;2023-01-05T11:07:28;34.05;;;16.90;;
30970;SDS011;17651;52.262;10.498;2023-01-05T11:09:40;6.28;;;2.50;;
30970;SDS011;17651;52.262;10.498;2023-01-05T11:11:53;2.67;;;1.15;;
30970;SDS011;17651;52.262;10.498;2023-01-05T11:14:05;2.08;;;1.10;;
30970;SDS011;17651;52.262;10.498;2023-01-05T11:16:17;3.75;;;1.30;;
30970;SDS011;17651;52.262;10.498;2023-01-05T11:23:31;3.95;;;1.00;;
30970;SDS011;17651;52.262;10.498;2023-01-05T11:25:43;1.67;;;1.45;;
30970;SDS011;17651;52.262;10.498;2023-01-05T11:28:05;3.92;;;1.00;;
30970;SDS011;17651;52.262;10.498;2023-01-05T11:30:18;2.40;;;0.85;;
30970;SDS011;17651;52.262;10.498;2023-01-05T11:32:29;1.95;;;1.10;;
30970;SDS011;17651;52.262;10.498;2023-01-05T11:34:47;4.85;;;2.03;;
30970;SDS011;17651;52.262;10.498;2023-01-05T11:37:01;4.03;;;1.15;;
30970;SDS011;17651;52.262;10.498;2023-01-05T11:39:16;3.42;;;1.10;;
30970;SDS011;17651;52.262;10.498;2023-01-05T11:41:29;2.42;;;0.88;;
30970;SDS011;17651;52.262;10.498;2023-01-05T11:43:40;1.70;;;0.90;;
30970;SDS011;17651;52.262;10.498;2023-01-05T11:45:52;3.53;;;1.45;;
30970;SDS011;17651;52.262;10.498;2023-01-05T11:48:05;2.80;;;0.80;;
30970;SDS011;17651;52.262;10.498;2023-01-05T11:53:19;2.80;;;1.30;;
30970;SDS011;17651;52.262;10.498;2023-01-05T11:55:47;3.63;;;1.25;;
30970;SDS011;17651;52.262;10.498;2023-01-05T11:57:39;1.23;;;1.00;;
30970;SDS011;17651;52.262;10.498;2023-01-05T11:59:50;1.10;;;1.00;;
30970;SDS011;17651;52.262;10.498;2023-01-05T12:04:47;2.90;;;1.02;;
30970;SDS011;17651;52.262;10.498;2023-01-05T12:09:28;1.45;;;0.90;;
30970;SDS011;17651;52.262;10.498;2023-01-05T12:11:42;3.83;;;1.10;;
30970;SDS011;17651;52.262;10.498;2023-01-05T12:14:01;2.88;;;1.00;;
30970;SDS011;17651;52.262;10.498;2023-01-05T12:20:41;2.75;;;0.90;;
30970;SDS011;17651;52.262;10.498;2023-01-05T12:23:01;0.80;;;0.80;;
30970;SDS011;17651;52.262;10.498;2023-01-05T12:32:25;3.67;;;1.13;;
30970;SDS011;17651;52.262;10.498;2023-01-05T12:34:54;1.33;;;0.90;;
30970;SDS011;17651;52.262;10.498;2023-01-05T12:37:16;5.38;;;1.25;;
30970;SDS011;17651;52.262;10.498;2023-01-05T12:42:12;3.42;;;1.58;;
30970;SDS011;17651;52.262;10.498;2023-01-05T12:45:28;3.13;;;1.23;;
30970;SDS011;17651;52.262;10.498;2023-01-05T12:47:10;3.28;;;1.63;;
30970;SDS011;17651;52.262;10.498;2023-01-05T12:52:17;1.75;;;1.02;;
30970;SDS011;17651;52.262;10.498;2023-01-05T12:56:50;2.50;;;1.10;;
30970;SDS011;17651;52.262;10.498;2023-01-05T13:01:15;4.20;;;1.30;;
30970;SDS011;17651;52.262;10.498;2023-01-05T13:03:33;2.58;;;0.93;;
30970;SDS011;17651;52.262;10.498;2023-01-05T13:13:11;2.05;;;1.02;;
30970;SDS011;17651;52.262;10.498;2023-01-05T13:15:26;5.05;;;2.10;;
30970;SDS011;17651;52.262;10.498;2023-01-05T13:17:40;3.97;;;1.50;;
30970;SDS011;17651;52.262;10.498;2023-01-05T13:20:01;6.60;;;1.42;;
30970;SDS011;17651;52.262;10.498;2023-01-05T13:22:25;1.03;;;1.00;;
30970;SDS011;17651;52.262;10.498;2023-01-05T13:27:01;5.20;;;1.38;;
30970;SDS011;17651;52.262;10.498;2023-01-05T13:29:22;3.13;;;1.00;;
30970;SDS011;17651;52.262;10.498;2023-01-05T13:34:08;11.38;;;3.25;;
30970;SDS011;17651;52.262;10.498;2023-01-05T13:54:33;3.28;;;1.13;;
30970;SDS011;17651;52.262;10.498;2023-01-05T13:56:48;1.52;;;1.00;;
30970;SDS011;17651;52.262;10.498;2023-01-05T13:59:03;3.45;;;1.10;;
30970;SDS011;17651;52.262;10.498;2023-01-05T14:01:16;2.75;;;1.30;;
30970;SDS011;17651;52.262;10.498;2023-01-05T14:03:28;2.45;;;0.90;;
30970;SDS011;17651;52.262;10.498;2023-01-05T14:05:52;1.85;;;1.02;;
30970;SDS011;17651;52.262;10.498;2023-01-05T14:08:04;1.88;;;1.42;;
30970;SDS011;17651;52.262;10.498;2023-01-05T14:10:19;3.97;;;1.10;;
30970;SDS011;17651;52.262;10.498;2023-01-05T14:12:42;1.17;;;1.08;;
30970;SDS011;17651;52.262;10.498;2023-01-05T14:17:08;4.15;;;1.00;;
30970;SDS011;17651;52.262;10.498;2023-01-05T14:24:03;2.95;;;1.40;;
30970;SDS011;17651;52.262;10.498;2023-01-05T14:26:14;2.45;;;1.02;;
30970;SDS011;17651;52.262;10.498;2023-01-05T14:32:56;1.17;;;1.08;;
30970;SDS011;17651;52.262;10.498;2023-01-05T14:35:18;5.35;;;1.13;;
30970;SDS011;17651;52.262;10.498;2023-01-05T14:39:47;2.85;;;1.13;;
30970;SDS011;17651;52.262;10.498;2023-01-05T14:44:16;5.75;;;1.60;;
30970;SDS011;17651;52.262;10.498;2023-01-05T14:46:41;2.47;;;1.50;;
30970;SDS011;17651;52.262;10.498;2023-01-05T14:49:01;5.07;;;1.42;;
30970;SDS011;17651;52.262;10.498;2023-01-05T14:51:21;3.22;;;2.00;;
30970;SDS011;17651;52.262;10.498;2023-01-05T14:53:41;1.52;;;1.17;;
30970;SDS011;17651;52.262;10.498;2023-01-05T14:58:12;2.70;;;1.88;;
30970;SDS011;17651;52.262;10.498;2023-01-05T15:03:11;3.85;;;1.67;;
30970;SDS011;17651;52.262;10.498;2023-01-05T15:05:27;3.78;;;1.65;;
30970;SDS011;17651;52.262;10.498;2023-01-05T15:07:43;3.88;;;1.67;;
30970;SDS011;17651;52.262;10.498;2023-01-05T15:27:09;8.77;;;2.70;;
30970;SDS011;17651;52.262;10.498;2023-01-05T15:31:52;4.22;;;2.50;;
30970;SDS011;17651;52.262;10.498;2023-01-05T15:36:43;5.60;;;2.97;;
30970;SDS011;17651;52.262;10.498;2023-01-05T15:38:55;3.63;;;2.55;;
30970;SDS011;17651;52.262;10.498;2023-01-05T15:41:07;4.70;;;2.55;;
30970;SDS011;17651;52.262;10.498;2023-01-05T15:43:19;9.75;;;3.33;;
30970;SDS011;17651;52.262;10.498;2023-01-05T15:45:31;8.85;;;3.30;;
30970;SDS011;17651;52.262;10.498;2023-01-05T15:47:43;8.15;;;3.33;;
30970;SDS011;17651;52.262;10.498;2023-01-05T15:49:59;3.10;;;2.80;;
30970;SDS011;17651;52.262;10.498;2023-01-05T15:52:17;4.72;;;3.20;;
30970;SDS011;17651;52.262;10.498;2023-01-05T15:54:30;3.95;;;3.08;;
30970;SDS011;17651;52.262;10.498;2023-01-05T15:56:41;7.35;;;3.47;;